createdAt,value
2019-06-27T00:00:01.183Z,24.32
2019-06-27T00:00:41.729Z,24.32
2019-06-27T00:01:22.292Z,24.38
2019-06-27T00:02:02.849Z,24.29
2019-06-27T00:02:43.468Z,24.24
2019-06-27T00:03:24.087Z,24.28
2019-06-27T00:04:04.655Z,24.24
2019-06-27T00:04:45.219Z,24.24
2019-06-27T00:05:25.783Z,24.24
2019-06-27T00:06:06.347Z,24.2
2019-06-27T00:06:46.918Z,24.17
2019-06-27T00:07:27.485Z,24.11
2019-06-27T00:08:08.041Z,24.11
2019-06-27T00:08:48.623Z,24.13
2019-06-27T00:09:29.256Z,24.13
2019-06-27T00:10:09.766Z,24.08
2019-06-27T00:10:50.330Z,24.11
2019-06-27T00:11:30.907Z,24.14
2019-06-27T00:12:11.492Z,24.16
2019-06-27T00:12:52.059Z,24.03
2019-06-27T00:13:32.620Z,23.98
2019-06-27T00:14:13.231Z,23.93
2019-06-27T00:14:53.824Z,23.87
2019-06-27T00:15:34.470Z,23.8
2019-06-27T00:16:14.961Z,23.73
2019-06-27T00:16:55.535Z,23.76
2019-06-27T00:17:36.091Z,23.63
2019-06-27T00:18:16.663Z,23.61
2019-06-27T00:18:57.299Z,23.66
2019-06-27T00:19:37.870Z,23.59
2019-06-27T00:20:18.424Z,23.63
2019-06-27T00:20:58.998Z,23.55
2019-06-27T00:21:39.582Z,23.63
2019-06-27T00:22:20.148Z,23.62
2019-06-27T00:23:00.713Z,23.5
2019-06-27T00:23:41.265Z,23.47
2019-06-27T00:24:21.819Z,23.48
2019-06-27T00:25:02.434Z,23.44
2019-06-27T00:25:42.948Z,23.44
2019-06-27T00:26:23.528Z,23.51
2019-06-27T00:27:04.077Z,23.4
2019-06-27T00:27:44.663Z,23.5
2019-06-27T00:28:25.211Z,23.47
2019-06-27T00:29:05.773Z,23.46
2019-06-27T00:29:46.660Z,23.51
2019-06-27T00:30:27.246Z,23.59
2019-06-27T00:31:07.814Z,23.59
2019-06-27T00:31:48.387Z,23.54
2019-06-27T00:32:28.953Z,23.56
2019-06-27T00:33:09.522Z,23.55
2019-06-27T00:33:50.083Z,23.55
2019-06-27T00:34:30.645Z,23.47
2019-06-27T00:35:11.245Z,23.5
2019-06-27T00:35:51.807Z,23.5
2019-06-27T00:36:32.369Z,23.46
2019-06-27T00:37:12.928Z,23.47
2019-06-27T00:37:53.497Z,23.36
2019-06-27T00:38:34.060Z,23.4
2019-06-27T00:39:14.700Z,23.39
2019-06-27T00:39:55.255Z,23.37
2019-06-27T00:40:35.827Z,23.39
2019-06-27T00:41:16.385Z,23.31
2019-06-27T00:41:56.979Z,23.23
2019-06-27T00:42:37.537Z,23.15
2019-06-27T00:43:18.145Z,23.21
2019-06-27T00:43:58.719Z,23.13
2019-06-27T00:44:39.279Z,23.13
2019-06-27T00:45:19.845Z,23.03
2019-06-27T00:46:00.417Z,23
2019-06-27T00:46:41.000Z,23.02
2019-06-27T00:47:21.566Z,23.06
2019-06-27T00:48:02.142Z,23.12
2019-06-27T00:48:42.731Z,23.17
2019-06-27T00:49:23.307Z,23.13
2019-06-27T00:50:03.859Z,23.17
2019-06-27T00:50:44.472Z,23.03
2019-06-27T00:51:25.101Z,23.15
2019-06-27T00:52:05.639Z,23.13
2019-06-27T00:52:46.185Z,23.1
2019-06-27T00:53:26.747Z,23.21
2019-06-27T00:54:07.296Z,23.12
2019-06-27T00:54:47.851Z,23.17
2019-06-27T00:55:28.443Z,23.18
2019-06-27T00:56:09.015Z,23.12
2019-06-27T00:56:49.620Z,23.2
2019-06-27T00:57:30.182Z,23.2
2019-06-27T00:58:10.794Z,23.18
2019-06-27T00:58:51.350Z,23.2
2019-06-27T00:59:31.923Z,23.15
2019-06-27T01:00:12.511Z,23.05
2019-06-27T01:00:53.063Z,23.05
2019-06-27T01:01:33.640Z,23.03
2019-06-27T01:02:14.221Z,22.99
2019-06-27T01:02:54.806Z,22.96
2019-06-27T01:03:35.380Z,22.84
2019-06-27T01:04:15.929Z,23
2019-06-27T01:04:56.510Z,22.94
2019-06-27T01:05:37.064Z,22.88
2019-06-27T01:06:17.626Z,22.84
2019-06-27T01:06:58.195Z,22.87
2019-06-27T01:07:38.746Z,22.78
2019-06-27T01:08:19.309Z,22.7
2019-06-27T01:08:59.862Z,22.54
2019-06-27T01:09:40.446Z,22.55
2019-06-27T01:10:21.023Z,22.48
2019-06-27T01:11:01.575Z,22.44
2019-06-27T01:11:42.141Z,22.44
2019-06-27T01:12:22.707Z,22.38
2019-06-27T01:13:03.293Z,22.41
2019-06-27T01:13:43.854Z,22.45
2019-06-27T01:14:24.421Z,22.28
2019-06-27T01:15:05.042Z,22.33
2019-06-27T01:15:45.598Z,22.26
2019-06-27T01:16:26.166Z,22.13
2019-06-27T01:17:06.780Z,22.18
2019-06-27T01:17:47.350Z,22.13
2019-06-27T01:18:27.913Z,22.1
2019-06-27T01:19:08.492Z,22.14
2019-06-27T01:19:49.045Z,22.1
2019-06-27T01:20:29.609Z,22.11
2019-06-27T01:21:10.196Z,22.04
2019-06-27T01:21:50.793Z,22.08
2019-06-27T01:22:31.331Z,21.91
2019-06-27T01:23:11.906Z,21.93
2019-06-27T01:23:52.463Z,21.85
2019-06-27T01:24:33.032Z,21.88
2019-06-27T01:25:13.607Z,21.8
2019-06-27T01:25:54.173Z,21.85
2019-06-27T01:26:34.745Z,21.75
2019-06-27T01:27:29.010Z,21.69
2019-06-27T01:27:55.968Z,21.69
2019-06-27T01:28:36.523Z,21.67
2019-06-27T01:29:17.126Z,21.66
2019-06-27T01:29:57.694Z,21.64
2019-06-27T01:30:38.266Z,21.72
2019-06-27T01:31:18.823Z,21.66
2019-06-27T01:31:59.405Z,21.85
2019-06-27T01:32:39.960Z,21.88
2019-06-27T01:33:20.540Z,21.82
2019-06-27T01:34:01.109Z,21.89
2019-06-27T01:34:41.678Z,21.83
2019-06-27T01:35:22.361Z,21.82
2019-06-27T01:36:02.918Z,21.77
2019-06-27T01:36:43.535Z,21.83
2019-06-27T01:37:24.095Z,21.72
2019-06-27T01:39:18.421Z,21.64
2019-06-27T01:39:58.981Z,21.69
2019-06-27T01:40:39.560Z,21.64
2019-06-27T01:41:20.115Z,21.62
2019-06-27T01:42:00.669Z,21.69
2019-06-27T01:42:41.234Z,21.6
2019-06-27T01:43:21.799Z,21.64
2019-06-27T01:44:02.379Z,21.62
2019-06-27T01:44:42.936Z,21.67
2019-06-27T01:45:23.503Z,21.66
2019-06-27T01:46:04.058Z,21.82
2019-06-27T01:46:44.620Z,21.83
2019-06-27T01:47:25.181Z,21.83
2019-06-27T01:48:05.747Z,21.8
2019-06-27T01:48:46.321Z,21.92
2019-06-27T01:49:26.904Z,21.8
2019-06-27T01:50:07.488Z,21.92
2019-06-27T01:50:48.040Z,21.83
2019-06-27T01:51:28.629Z,21.96
2019-06-27T01:52:09.200Z,21.76
2019-06-27T01:52:49.770Z,21.82
2019-06-27T01:53:30.345Z,21.67
2019-06-27T01:54:10.899Z,21.75
2019-06-27T01:54:51.450Z,21.77
2019-06-27T01:55:32.019Z,21.72
2019-06-27T01:56:12.617Z,21.61
2019-06-27T01:56:53.203Z,21.75
2019-06-27T01:57:45.884Z,21.83
2019-06-27T01:58:14.334Z,21.76
2019-06-27T01:58:54.966Z,21.7
2019-06-27T01:59:35.554Z,21.77
2019-06-27T02:00:16.136Z,21.6
2019-06-27T02:00:56.707Z,21.69
2019-06-27T02:01:37.312Z,21.66
2019-06-27T02:02:17.862Z,21.61
2019-06-27T02:02:58.435Z,21.67
2019-06-27T02:03:38.996Z,21.61
2019-06-27T02:04:19.568Z,21.66
2019-06-27T02:05:00.258Z,21.75
2019-06-27T02:05:40.700Z,21.69
2019-06-27T02:06:21.284Z,21.7
2019-06-27T02:07:01.914Z,21.67
2019-06-27T02:07:42.427Z,21.72
2019-06-27T02:08:23.023Z,21.52
2019-06-27T02:09:03.596Z,21.55
2019-06-27T02:09:44.164Z,21.43
2019-06-27T02:10:24.737Z,21.51
2019-06-27T02:11:05.308Z,21.54
2019-06-27T02:11:45.898Z,21.4
2019-06-27T02:12:26.486Z,21.5
2019-06-27T02:13:07.033Z,21.46
2019-06-27T02:13:47.652Z,21.48
2019-06-27T02:14:28.229Z,21.51
2019-06-27T02:15:08.824Z,21.54
2019-06-27T02:15:49.388Z,21.5
2019-06-27T02:16:29.963Z,21.66
2019-06-27T02:17:10.602Z,21.64
2019-06-27T02:17:51.166Z,21.51
2019-06-27T02:18:31.739Z,21.7
2019-06-27T02:19:12.343Z,21.72
2019-06-27T02:19:52.913Z,21.6
2019-06-27T02:20:33.497Z,21.66
2019-06-27T02:21:14.086Z,21.66
2019-06-27T02:21:54.671Z,21.6
2019-06-27T02:22:35.248Z,21.7
2019-06-27T02:23:16.155Z,21.52
2019-06-27T02:23:56.380Z,21.51
2019-06-27T02:24:36.940Z,21.55
2019-06-27T02:25:17.517Z,21.43
2019-06-27T02:25:58.062Z,21.45
2019-06-27T02:26:38.631Z,21.46
2019-06-27T02:27:19.238Z,21.46
2019-06-27T02:28:04.026Z,21.6
2019-06-27T02:28:40.373Z,21.6
2019-06-27T02:29:20.966Z,21.48
2019-06-27T02:30:01.546Z,21.55
2019-06-27T02:30:42.094Z,21.64
2019-06-27T02:31:22.687Z,21.61
2019-06-27T02:32:03.241Z,21.54
2019-06-27T02:32:43.823Z,21.5
2019-06-27T02:33:24.386Z,21.54
2019-06-27T02:34:06.491Z,21.51
2019-06-27T02:34:45.519Z,21.46
2019-06-27T02:35:26.092Z,21.6
2019-06-27T02:36:06.647Z,21.64
2019-06-27T02:36:47.207Z,21.72
2019-06-27T02:37:27.770Z,21.58
2019-06-27T02:38:08.349Z,21.48
2019-06-27T02:38:48.904Z,21.51
2019-06-27T02:39:29.459Z,21.43
2019-06-27T02:40:10.024Z,21.33
2019-06-27T02:40:50.588Z,21.33
2019-06-27T02:41:31.173Z,21.3
2019-06-27T02:42:11.737Z,21.14
2019-06-27T02:42:52.332Z,21.2
2019-06-27T02:43:32.909Z,21.07
2019-06-27T02:44:13.477Z,21.12
2019-06-27T02:44:54.038Z,21.15
2019-06-27T02:45:34.603Z,21.12
2019-06-27T02:46:15.167Z,21.06
2019-06-27T02:46:55.739Z,21.14
2019-06-27T02:47:36.312Z,21.09
2019-06-27T02:48:16.909Z,21.15
2019-06-27T02:48:57.464Z,21.21
2019-06-27T02:49:38.015Z,21.22
2019-06-27T02:50:18.584Z,21.27
2019-06-27T02:50:59.210Z,21.33
2019-06-27T02:51:39.710Z,21.32
2019-06-27T02:52:20.260Z,21.3
2019-06-27T02:53:00.857Z,21.37
2019-06-27T02:53:41.417Z,21.4
2019-06-27T02:54:22.023Z,21.3
2019-06-27T02:55:02.571Z,21.3
2019-06-27T02:55:43.131Z,21.37
2019-06-27T02:56:23.710Z,21.29
2019-06-27T02:57:04.268Z,21.3
2019-06-27T02:57:44.835Z,21.24
2019-06-27T02:58:30.404Z,21.27
2019-06-27T02:59:05.955Z,21.27
2019-06-27T02:59:46.514Z,21.17
2019-06-27T03:00:27.105Z,21.24
2019-06-27T03:01:07.674Z,21.15
2019-06-27T03:01:48.299Z,21.15
2019-06-27T03:02:28.852Z,21.07
2019-06-27T03:03:09.480Z,21.07
2019-06-27T03:03:50.055Z,21.05
2019-06-27T03:04:30.634Z,21.07
2019-06-27T03:05:11.224Z,21
2019-06-27T03:05:51.820Z,20.97
2019-06-27T03:06:32.369Z,20.96
2019-06-27T03:07:12.925Z,20.92
2019-06-27T03:07:53.494Z,20.85
2019-06-27T03:08:34.083Z,20.81
2019-06-27T03:09:14.699Z,20.7
2019-06-27T03:09:55.264Z,20.81
2019-06-27T03:10:35.830Z,20.81
2019-06-27T03:11:16.401Z,20.92
2019-06-27T03:12:00.098Z,20.84
2019-06-27T03:12:37.517Z,20.97
2019-06-27T03:13:18.083Z,20.96
2019-06-27T03:13:58.669Z,20.99
2019-06-27T03:14:39.236Z,20.93
2019-06-27T03:15:19.799Z,20.99
2019-06-27T03:16:00.378Z,20.97
2019-06-27T03:16:41.088Z,20.99
2019-06-27T03:17:21.691Z,21
2019-06-27T03:18:02.280Z,20.95
2019-06-27T03:18:42.885Z,20.96
2019-06-27T03:19:23.568Z,20.96
2019-06-27T03:20:04.171Z,20.92
2019-06-27T03:20:44.747Z,20.88
2019-06-27T03:21:25.366Z,20.82
2019-06-27T03:22:06.443Z,20.8
2019-06-27T03:22:46.555Z,20.8
2019-06-27T03:23:27.182Z,20.78
2019-06-27T03:24:07.794Z,20.8
2019-06-27T03:24:48.390Z,20.82
2019-06-27T03:25:28.947Z,20.75
2019-06-27T03:26:09.526Z,20.75
2019-06-27T03:26:50.179Z,20.78
2019-06-27T03:27:30.767Z,20.78
2019-06-27T03:28:11.322Z,20.88
2019-06-27T03:28:53.962Z,20.96
2019-06-27T03:29:32.857Z,20.95
2019-06-27T03:30:13.447Z,20.95
2019-06-27T03:30:54.186Z,21.09
2019-06-27T03:31:34.558Z,21.07
2019-06-27T03:32:15.132Z,21
2019-06-27T03:32:55.706Z,21.12
2019-06-27T03:33:36.288Z,21.14
2019-06-27T03:34:16.864Z,21.2
2019-06-27T03:34:57.443Z,21.14
2019-06-27T03:35:38.023Z,21.09
2019-06-27T03:36:18.601Z,21.17
2019-06-27T03:36:59.174Z,21.03
2019-06-27T03:37:39.737Z,21.06
2019-06-27T03:38:20.327Z,21.05
2019-06-27T03:39:00.927Z,20.96
2019-06-27T03:39:41.490Z,20.99
2019-06-27T03:40:22.069Z,20.9
2019-06-27T03:41:02.618Z,20.75
2019-06-27T03:41:43.183Z,20.75
2019-06-27T03:42:23.774Z,20.72
2019-06-27T03:43:04.346Z,20.69
2019-06-27T03:43:44.909Z,20.65
2019-06-27T03:44:25.465Z,20.6
2019-06-27T03:45:06.071Z,20.39
2019-06-27T03:45:46.626Z,20.44
2019-06-27T03:46:27.219Z,20.39
2019-06-27T03:47:07.835Z,20.28
2019-06-27T03:47:48.352Z,20.26
2019-06-27T03:48:29.055Z,20.28
2019-06-27T03:49:09.511Z,20.31
2019-06-27T03:49:50.097Z,20.29
2019-06-27T03:50:30.695Z,20.26
2019-06-27T03:51:11.277Z,20.28
2019-06-27T03:51:51.845Z,20.22
2019-06-27T03:52:32.393Z,20.26
2019-06-27T03:53:12.976Z,20.26
2019-06-27T03:53:53.540Z,20.26
2019-06-27T03:54:34.091Z,20.13
2019-06-27T03:55:14.657Z,20.14
2019-06-27T03:55:55.245Z,20.06
2019-06-27T03:56:35.818Z,19.91
2019-06-27T03:57:16.394Z,20.02
2019-06-27T03:57:56.965Z,19.82
2019-06-27T03:58:37.527Z,19.86
2019-06-27T03:59:18.087Z,19.73
2019-06-27T03:59:58.637Z,19.62
2019-06-27T04:00:39.205Z,19.62
2019-06-27T04:01:19.775Z,19.59
2019-06-27T04:02:00.378Z,19.66
2019-06-27T04:02:40.940Z,19.66
2019-06-27T04:03:21.546Z,19.66
2019-06-27T04:04:02.127Z,19.69
2019-06-27T04:04:42.702Z,19.67
2019-06-27T04:05:23.293Z,19.79
2019-06-27T04:06:03.849Z,19.74
2019-06-27T04:06:44.412Z,19.81
2019-06-27T04:07:24.983Z,19.79
2019-06-27T04:08:05.564Z,19.86
2019-06-27T04:08:46.119Z,19.84
2019-06-27T04:09:26.689Z,19.91
2019-06-27T04:10:07.274Z,19.89
2019-06-27T04:10:47.868Z,19.92
2019-06-27T04:11:28.451Z,19.94
2019-06-27T04:12:09.058Z,19.92
2019-06-27T04:12:49.614Z,19.96
2019-06-27T04:13:30.215Z,19.95
2019-06-27T04:14:10.817Z,19.92
2019-06-27T04:14:51.369Z,19.84
2019-06-27T04:15:31.943Z,19.63
2019-06-27T04:16:12.519Z,19.63
2019-06-27T04:16:53.123Z,19.69
2019-06-27T04:17:33.700Z,19.64
2019-06-27T04:18:14.294Z,19.71
2019-06-27T04:18:54.886Z,19.66
2019-06-27T04:19:35.468Z,19.59
2019-06-27T04:20:16.046Z,19.55
2019-06-27T04:20:56.612Z,19.62
2019-06-27T04:21:37.188Z,19.67
2019-06-27T04:22:18.021Z,19.73
2019-06-27T04:22:58.373Z,19.7
2019-06-27T04:23:38.943Z,19.69
2019-06-27T04:24:19.524Z,19.74
2019-06-27T04:25:00.115Z,19.74
2019-06-27T04:25:40.687Z,19.91
2019-06-27T04:26:21.245Z,19.88
2019-06-27T04:27:01.808Z,19.76
2019-06-27T04:27:42.370Z,19.81
2019-06-27T04:28:22.989Z,19.71
2019-06-27T04:29:03.559Z,19.77
2019-06-27T04:29:44.138Z,19.81
2019-06-27T04:30:24.703Z,19.81
2019-06-27T04:31:05.262Z,19.77
2019-06-27T04:31:45.849Z,19.84
2019-06-27T04:32:26.405Z,19.88
2019-06-27T04:33:07.013Z,19.95
2019-06-27T04:33:47.615Z,20.03
2019-06-27T04:34:28.223Z,20.02
2019-06-27T04:35:08.805Z,19.96
2019-06-27T04:35:49.382Z,20.02
2019-06-27T04:36:29.963Z,20
2019-06-27T04:37:10.546Z,20.07
2019-06-27T04:37:51.151Z,19.95
2019-06-27T04:38:31.704Z,19.91
2019-06-27T04:39:12.283Z,19.94
2019-06-27T04:39:52.869Z,19.96
2019-06-27T04:40:33.455Z,19.92
2019-06-27T04:41:14.082Z,19.99
2019-06-27T04:41:54.629Z,19.92
2019-06-27T04:42:35.231Z,19.82
2019-06-27T04:43:15.844Z,19.71
2019-06-27T04:43:56.394Z,19.74
2019-06-27T04:44:36.967Z,19.88
2019-06-27T04:45:17.569Z,19.79
2019-06-27T04:45:58.175Z,19.82
2019-06-27T04:46:38.804Z,19.69
2019-06-27T04:47:19.347Z,19.79
2019-06-27T04:47:59.923Z,19.85
2019-06-27T04:48:40.515Z,19.92
2019-06-27T04:49:21.087Z,19.84
2019-06-27T04:50:01.678Z,19.95
2019-06-27T04:50:42.202Z,19.84
2019-06-27T04:51:22.747Z,19.84
2019-06-27T04:52:03.368Z,19.88
2019-06-27T04:52:43.950Z,19.91
2019-06-27T04:53:24.536Z,19.86
2019-06-27T04:54:05.088Z,20.04
2019-06-27T04:54:45.645Z,19.95
2019-06-27T04:55:26.233Z,20.09
2019-06-27T04:56:06.806Z,20.07
2019-06-27T04:56:47.394Z,20.14
2019-06-27T04:57:27.955Z,20.13
2019-06-27T04:58:08.511Z,20.19
2019-06-27T04:58:49.095Z,20.26
2019-06-27T04:59:29.676Z,20.32
2019-06-27T05:00:10.245Z,20.28
2019-06-27T05:00:50.867Z,20.26
2019-06-27T05:01:31.433Z,20.37
2019-06-27T05:02:12.002Z,20.37
2019-06-27T05:02:52.559Z,20.41
2019-06-27T05:03:33.135Z,20.39
2019-06-27T05:04:13.698Z,20.5
2019-06-27T05:04:54.269Z,20.58
2019-06-27T05:05:34.821Z,20.59
2019-06-27T05:06:15.410Z,20.59
2019-06-27T05:06:55.964Z,20.66
2019-06-27T05:07:36.519Z,20.74
2019-06-27T05:08:17.098Z,20.88
2019-06-27T05:08:57.676Z,20.84
2019-06-27T05:09:38.243Z,20.8
2019-06-27T05:10:18.814Z,20.67
2019-06-27T05:10:59.399Z,20.66
2019-06-27T05:11:39.967Z,20.52
2019-06-27T05:12:20.553Z,20.6
2019-06-27T05:13:01.127Z,20.59
2019-06-27T05:13:41.705Z,20.62
2019-06-27T05:14:22.284Z,20.67
2019-06-27T05:15:02.856Z,20.63
2019-06-27T05:15:43.387Z,20.6
2019-06-27T05:16:23.948Z,20.62
2019-06-27T05:17:04.523Z,20.52
2019-06-27T05:17:45.077Z,20.44
2019-06-27T05:18:25.628Z,20.52
2019-06-27T05:19:06.190Z,20.47
2019-06-27T05:19:46.754Z,20.44
2019-06-27T05:20:27.345Z,20.41
2019-06-27T05:21:07.880Z,20.5
2019-06-27T05:21:48.446Z,20.43
2019-06-27T05:22:29.019Z,20.55
2019-06-27T05:23:09.622Z,20.58
2019-06-27T05:23:50.193Z,20.56
2019-06-27T05:24:30.766Z,20.62
2019-06-27T05:25:11.363Z,20.69
2019-06-27T05:25:51.969Z,20.58
2019-06-27T05:26:32.551Z,20.65
2019-06-27T05:27:13.117Z,20.6
2019-06-27T05:27:53.682Z,20.6
2019-06-27T05:28:34.236Z,20.62
2019-06-27T05:29:14.809Z,20.56
2019-06-27T05:30:08.506Z,20.56
2019-06-27T05:30:36.217Z,20.5
2019-06-27T05:31:16.799Z,20.5
2019-06-27T05:31:57.380Z,20.51
2019-06-27T05:32:37.961Z,20.59
2019-06-27T05:33:18.540Z,20.55
2019-06-27T05:33:59.098Z,20.58
2019-06-27T05:34:39.688Z,20.55
2019-06-27T05:35:20.327Z,20.65
2019-06-27T05:36:02.437Z,20.75
2019-06-27T05:36:41.423Z,20.84
2019-06-27T05:37:21.988Z,20.74
2019-06-27T05:38:02.543Z,20.75
2019-06-27T05:38:43.121Z,20.75
2019-06-27T05:39:23.701Z,20.75
2019-06-27T05:40:04.285Z,20.85
2019-06-27T05:40:44.935Z,20.95
2019-06-27T05:41:25.499Z,21.02
2019-06-27T05:42:06.061Z,21.09
2019-06-27T05:42:46.629Z,21.22
2019-06-27T05:43:27.281Z,21.29
2019-06-27T05:44:07.871Z,21.29
2019-06-27T05:44:48.457Z,21.3
2019-06-27T05:45:29.070Z,21.27
2019-06-27T05:46:09.636Z,21.4
2019-06-27T05:46:50.199Z,21.5
2019-06-27T05:47:30.769Z,21.4
2019-06-27T05:48:11.329Z,21.48
2019-06-27T05:48:51.911Z,21.3
2019-06-27T05:49:32.488Z,21.42
2019-06-27T05:50:13.062Z,21.51
2019-06-27T05:50:53.634Z,21.55
2019-06-27T05:51:34.213Z,21.62
2019-06-27T05:52:14.775Z,21.85
2019-06-27T05:52:55.405Z,21.93
2019-06-27T05:53:35.988Z,22.07
2019-06-27T05:54:16.566Z,22.13
2019-06-27T05:54:57.124Z,22.32
2019-06-27T05:55:37.702Z,22.44
2019-06-27T05:56:18.285Z,22.54
2019-06-27T05:56:58.860Z,22.62
2019-06-27T05:57:39.424Z,22.66
2019-06-27T05:58:19.985Z,22.78
2019-06-27T05:59:00.594Z,22.78
2019-06-27T05:59:41.155Z,22.85
2019-06-27T06:00:27.972Z,22.99
2019-06-27T06:01:02.324Z,23.02
2019-06-27T06:01:42.900Z,23.05
2019-06-27T06:02:23.451Z,23.05
2019-06-27T06:03:04.061Z,23.05
2019-06-27T06:03:44.793Z,23.08
2019-06-27T06:04:25.424Z,23.17
2019-06-27T06:05:05.984Z,23.18
2019-06-27T06:05:46.649Z,23.23
2019-06-27T06:06:27.375Z,23.17
2019-06-27T06:07:07.943Z,23.2
2019-06-27T06:07:48.558Z,23.24
2019-06-27T06:08:29.176Z,23.28
2019-06-27T06:09:09.767Z,23.34
2019-06-27T06:09:50.363Z,23.39
2019-06-27T06:10:30.933Z,23.31
2019-06-27T06:11:11.514Z,23.44
2019-06-27T06:11:52.181Z,23.46
2019-06-27T06:12:32.684Z,23.59
2019-06-27T06:13:13.273Z,23.68
2019-06-27T06:13:53.822Z,23.69
2019-06-27T06:14:34.389Z,23.65
2019-06-27T06:15:15.026Z,23.51
2019-06-27T06:15:55.679Z,23.46
2019-06-27T06:16:36.265Z,23.4
2019-06-27T06:17:16.867Z,23.32
2019-06-27T06:17:57.552Z,23.17
2019-06-27T06:18:38.101Z,23.12
2019-06-27T06:19:18.709Z,23.05
2019-06-27T06:19:59.275Z,22.98
2019-06-27T06:20:39.865Z,22.84
2019-06-27T06:21:20.480Z,22.87
2019-06-27T06:22:01.067Z,22.96
2019-06-27T06:22:41.665Z,23.02
2019-06-27T06:23:22.273Z,23.09
2019-06-27T06:24:02.838Z,23.08
2019-06-27T06:24:43.413Z,22.98
2019-06-27T06:25:24.016Z,22.88
2019-06-27T06:26:04.625Z,22.75
2019-06-27T06:26:45.156Z,22.66
2019-06-27T06:29:43.979Z,22.54
2019-06-27T06:30:24.574Z,22.7
2019-06-27T06:31:05.142Z,22.83
2019-06-27T06:31:49.016Z,23.03
2019-06-27T06:32:26.318Z,23.09
2019-06-27T06:33:06.953Z,23.06
2019-06-27T06:33:47.515Z,23.03
2019-06-27T06:34:28.124Z,23.03
2019-06-27T06:36:41.478Z,22.75
2019-06-27T06:37:22.055Z,22.59
2019-06-27T06:38:02.641Z,22.65
2019-06-27T06:38:43.275Z,22.72
2019-06-27T06:39:23.858Z,22.73
2019-06-27T06:40:04.429Z,22.76
2019-06-27T06:40:45.061Z,22.78
2019-06-27T06:41:25.653Z,22.87
2019-06-27T06:42:06.280Z,23.02
2019-06-27T06:42:46.894Z,23.03
2019-06-27T06:43:27.533Z,23.05
2019-06-27T06:44:08.138Z,23.15
2019-06-27T06:44:48.897Z,23.21
2019-06-27T06:45:29.477Z,23.18
2019-06-27T06:46:10.137Z,23.1
2019-06-27T06:46:50.768Z,23.08
2019-06-27T06:47:31.446Z,23.15
2019-06-27T06:48:11.979Z,23.31
2019-06-27T06:48:52.591Z,23.37
2019-06-27T06:49:33.244Z,23.51
2019-06-27T06:50:13.814Z,23.61
2019-06-27T06:50:54.401Z,23.83
2019-06-27T06:51:35.045Z,23.99
2019-06-27T06:52:15.682Z,24.18
2019-06-27T06:52:56.254Z,24.18
2019-06-27T06:53:36.981Z,24.35
2019-06-27T06:54:17.546Z,24.42
2019-06-27T06:54:58.173Z,24.42
2019-06-27T06:55:41.754Z,24.42
2019-06-27T06:56:19.587Z,24.29
2019-06-27T06:57:00.252Z,24.33
2019-06-27T06:57:40.946Z,24.33
2019-06-27T06:58:21.582Z,24.45
2019-06-27T06:59:02.204Z,24.54
2019-06-27T06:59:42.796Z,24.68
2019-06-27T07:00:23.488Z,24.74
2019-06-27T07:01:04.114Z,24.78
2019-06-27T07:01:45.784Z,24.88
2019-06-27T07:02:25.389Z,24.85
2019-06-27T07:03:05.958Z,24.95
2019-06-27T07:03:46.599Z,24.92
2019-06-27T07:04:27.206Z,25.01
2019-06-27T07:05:07.845Z,25.1
2019-06-27T07:05:48.481Z,25.18
2019-06-27T07:06:29.213Z,25.23
2019-06-27T07:07:12.890Z,25.38
2019-06-27T07:07:50.424Z,25.47
2019-06-27T07:08:31.058Z,25.46
2019-06-27T07:09:11.691Z,25.55
2019-06-27T07:09:52.418Z,25.66
2019-06-27T07:10:33.031Z,25.7
2019-06-27T07:11:13.766Z,25.81
2019-06-27T07:11:54.486Z,25.84
2019-06-27T07:12:35.183Z,25.87
2019-06-27T07:13:15.813Z,25.91
2019-06-27T07:13:56.478Z,26.02
2019-06-27T07:14:37.052Z,26
2019-06-27T07:15:17.622Z,25.99
2019-06-27T07:15:58.205Z,26.18
2019-06-27T07:16:38.790Z,26.16
2019-06-27T07:17:19.389Z,26.15
2019-06-27T07:18:00.031Z,26.18
2019-06-27T07:18:40.661Z,26.21
2019-06-27T07:19:21.213Z,26.1
2019-06-27T07:20:01.932Z,26.13
2019-06-27T07:20:42.446Z,26.21
2019-06-27T07:21:23.070Z,26.13
2019-06-27T07:24:37.536Z,26.29
2019-06-27T07:25:18.095Z,26.25
2019-06-27T07:25:58.659Z,26.22
2019-06-27T07:26:39.225Z,26.03
2019-06-27T07:27:19.835Z,25.84
2019-06-27T07:28:00.384Z,25.69
2019-06-27T07:28:40.983Z,25.65
2019-06-27T07:29:21.543Z,25.66
2019-06-27T07:30:02.134Z,25.53
2019-06-27T07:30:42.727Z,25.48
2019-06-27T07:31:23.266Z,25.54
2019-06-27T07:32:03.845Z,25.55
2019-06-27T07:32:44.418Z,25.63
2019-06-27T07:33:24.995Z,25.7
2019-06-27T07:34:05.615Z,25.58
2019-06-27T07:34:46.285Z,25.53
2019-06-27T07:35:26.898Z,25.53
2019-06-27T07:36:07.489Z,25.51
2019-06-27T07:36:48.079Z,25.5
2019-06-27T07:37:28.660Z,25.55
2019-06-27T07:38:09.253Z,25.58
2019-06-27T07:38:49.853Z,25.48
2019-06-27T07:39:30.460Z,25.41
2019-06-27T07:40:11.066Z,25.36
2019-06-27T07:40:51.657Z,25.25
2019-06-27T07:41:32.309Z,25.29
2019-06-27T07:42:12.944Z,25.28
2019-06-27T07:42:53.490Z,25.33
2019-06-27T07:43:34.112Z,25.36
2019-06-27T07:44:14.717Z,25.31
2019-06-27T07:44:55.312Z,25.31
2019-06-27T07:45:35.972Z,25.28
2019-06-27T07:46:24.898Z,25.43
2019-06-27T07:46:57.146Z,25.38
2019-06-27T07:47:37.722Z,25.32
2019-06-27T07:48:18.411Z,25.17
2019-06-27T07:48:59.053Z,25.11
2019-06-27T07:49:39.629Z,25.08
2019-06-27T07:50:20.259Z,24.98
2019-06-27T07:51:00.901Z,24.78
2019-06-27T07:51:41.503Z,24.65
2019-06-27T07:52:22.111Z,24.5
2019-06-27T07:53:02.693Z,24.39
2019-06-27T07:53:43.312Z,24.33
2019-06-27T07:54:23.904Z,24.24
2019-06-27T07:55:04.516Z,24.17
2019-06-27T07:55:45.191Z,24.21
2019-06-27T07:56:25.811Z,24.1
2019-06-27T07:57:06.391Z,24.03
2019-06-27T07:57:46.977Z,24.16
2019-06-27T07:58:27.582Z,24.1
2019-06-27T07:59:08.235Z,24.13
2019-06-27T07:59:48.822Z,24.23
2019-06-27T08:00:29.438Z,24.39
2019-06-27T08:01:10.027Z,24.45
2019-06-27T08:01:50.645Z,24.54
2019-06-27T08:02:31.291Z,24.68
2019-06-27T08:03:11.860Z,24.7
2019-06-27T08:03:52.445Z,24.86
2019-06-27T08:04:33.063Z,24.89
2019-06-27T08:05:13.633Z,24.93
2019-06-27T08:05:54.240Z,25.07
2019-06-27T08:06:34.827Z,25.13
2019-06-27T08:07:15.505Z,25.14
2019-06-27T08:07:56.326Z,25.28
2019-06-27T08:08:37.134Z,25.23
2019-06-27T08:09:17.879Z,25.25
2019-06-27T08:09:58.446Z,25.33
2019-06-27T08:10:39.054Z,25.26
2019-06-27T08:11:19.640Z,25.18
2019-06-27T08:12:00.277Z,25.13
2019-06-27T08:12:42.383Z,25.1
2019-06-27T08:13:21.462Z,25.14
2019-06-27T08:14:02.093Z,25.13
2019-06-27T08:14:42.696Z,25.14
2019-06-27T08:15:23.339Z,25.28
2019-06-27T08:16:03.946Z,25.29
2019-06-27T08:16:44.533Z,25.33
2019-06-27T08:17:25.099Z,25.38
2019-06-27T08:18:05.795Z,25.41
2019-06-27T08:18:46.398Z,25.51
2019-06-27T08:19:27.035Z,25.55
2019-06-27T08:20:07.683Z,25.66
2019-06-27T08:20:48.266Z,25.65
2019-06-27T08:21:28.895Z,25.68
2019-06-27T08:22:09.492Z,25.68
2019-06-27T08:22:50.122Z,25.81
2019-06-27T08:23:40.828Z,25.5
2019-06-27T08:24:11.336Z,25.36
2019-06-27T08:24:51.942Z,25.16
2019-06-27T08:25:32.544Z,25.04
2019-06-27T08:26:13.137Z,25.03
2019-06-27T08:26:53.734Z,24.93
2019-06-27T08:27:34.327Z,25.08
2019-06-27T08:28:15.021Z,25.1
2019-06-27T08:28:55.717Z,25.11
2019-06-27T08:29:36.390Z,25.17
2019-06-27T08:30:17.323Z,25.21
2019-06-27T08:30:58.037Z,25.25
2019-06-27T08:31:50.791Z,25.28
2019-06-27T08:32:19.278Z,25.23
2019-06-27T08:32:59.883Z,25.32
2019-06-27T08:33:40.507Z,25.28
2019-06-27T08:34:21.235Z,25.36
2019-06-27T08:35:01.854Z,25.32
2019-06-27T08:35:42.470Z,25.28
2019-06-27T08:36:23.098Z,25.17
2019-06-27T08:37:03.812Z,25.14
2019-06-27T08:37:44.518Z,25.11
2019-06-27T08:38:25.553Z,25.1
2019-06-27T08:39:06.268Z,25.11
2019-06-27T08:39:47.093Z,24.99
2019-06-27T08:40:27.772Z,25.04
2019-06-27T08:41:08.426Z,25.1
2019-06-27T08:41:49.113Z,25.04
2019-06-27T08:42:29.770Z,25.18
2019-06-27T08:43:10.475Z,25.22
2019-06-27T08:43:51.211Z,25.17
2019-06-27T08:44:31.836Z,25.16
2019-06-27T08:45:12.394Z,25.16
2019-06-27T08:45:52.986Z,25.21
2019-06-27T08:46:33.560Z,25.23
2019-06-27T08:47:14.184Z,25.11
2019-06-27T08:47:54.788Z,25.11
2019-06-27T08:48:35.336Z,25.16
2019-06-27T08:49:15.915Z,25.01
2019-06-27T08:49:56.504Z,25.06
2019-06-27T08:50:37.095Z,24.95
2019-06-27T08:51:17.688Z,25.01
2019-06-27T08:51:58.277Z,25.01